Staten Island, New York
Current Conditions -  °F | °C
As of 4:55 AM on Saturday 01 Nov 2014 (Local Time) from KLDJ Reporting Station
Drizzle Drizzle  
Wind Chill: 46°   Ceiling: 2900
Heat Index: 50°   Visibility: 10mi
Dew Point: 45°   Wind: 10mph
Humidity: 83%   Direction: 40°NE
Pressure: 29.82"   Gusts: 17mph
Location:  40.58°N, 74.13°W
Report Text: KLDJ 010855Z AUTO 04009G15KT 010V070 10SM -DZ OVC029 10/07 A2982 RMK AO2 T00990072
Loading
Personal Weather Stations






























Interactive Weather Map New forecast layout! Learn more

10-Day Weather Forecast

Advertisements
Track Severe Weather on mobile